createdAt,value
2023-05-21T00:01:54.323Z,45.57
2023-05-21T00:04:29.866Z,45.46
2023-05-21T00:06:58.445Z,45.41
2023-05-21T00:09:26.426Z,45.35
2023-05-21T00:11:54.432Z,45.38
2023-05-21T00:14:24.305Z,45.37
2023-05-21T00:16:53.783Z,45.42
2023-05-21T00:19:21.824Z,45.42
2023-05-21T00:21:50.422Z,45.52
2023-05-21T00:24:18.457Z,45.49
2023-05-21T00:26:52.023Z,45.52
2023-05-21T00:29:20.078Z,45.46
2023-05-21T00:31:48.146Z,45.51
2023-05-21T00:34:17.853Z,45.38
2023-05-21T00:36:47.783Z,45.45
2023-05-21T00:39:18.648Z,45.47
2023-05-21T00:41:46.702Z,45.46
2023-05-21T00:44:16.769Z,45.50
2023-05-21T00:46:45.533Z,45.44
2023-05-21T00:49:17.608Z,45.57
2023-05-21T00:51:46.220Z,45.45
2023-05-21T00:54:14.220Z,45.42
2023-05-21T00:56:43.031Z,45.48
2023-05-21T00:59:13.865Z,45.37
2023-05-21T01:01:42.078Z,45.48
2023-05-21T01:04:10.063Z,45.32
2023-05-21T01:06:39.511Z,45.39
2023-05-21T01:09:07.720Z,45.52
2023-05-21T01:11:40.988Z,45.54
2023-05-21T01:14:11.087Z,45.57
2023-05-21T01:16:42.230Z,45.47
2023-05-21T01:19:15.002Z,45.44
2023-05-21T01:21:47.570Z,45.34
2023-05-21T01:24:17.213Z,45.60
2023-05-21T01:26:46.625Z,45.52
2023-05-21T01:29:15.610Z,45.36
2023-05-21T01:31:55.648Z,45.54
2023-05-21T01:34:29.615Z,45.71
2023-05-21T01:37:03.485Z,45.47
2023-05-21T01:39:36.597Z,45.52
2023-05-21T01:42:07.056Z,45.42
2023-05-21T01:44:35.984Z,45.36
2023-05-21T01:47:05.643Z,45.58
2023-05-21T01:49:34.550Z,45.53
2023-05-21T01:52:02.836Z,45.39
2023-05-21T01:54:32.180Z,45.40
2023-05-21T01:57:00.187Z,45.53
2023-05-21T01:59:30.033Z,45.54
2023-05-21T02:01:58.092Z,45.48
2023-05-21T02:04:26.051Z,45.58
2023-05-21T02:06:54.847Z,45.49
2023-05-21T02:09:22.869Z,45.62
2023-05-21T02:11:52.227Z,45.38
2023-05-21T02:14:20.544Z,45.47
2023-05-21T02:16:48.614Z,45.54
2023-05-21T02:19:16.756Z,45.58
2023-05-21T02:21:45.878Z,45.59
2023-05-21T02:24:15.486Z,45.53
2023-05-21T02:26:43.603Z,45.54
2023-05-21T02:29:12.953Z,45.60
2023-05-21T02:31:42.556Z,45.60
2023-05-21T02:34:10.531Z,45.71
2023-05-21T02:36:38.601Z,45.61
2023-05-21T02:39:06.672Z,45.61
2023-05-21T02:41:38.207Z,45.59
2023-05-21T02:44:06.326Z,45.63
2023-05-21T02:46:35.636Z,45.50
2023-05-21T02:49:03.677Z,45.60
2023-05-21T02:51:31.680Z,45.56
2023-05-21T02:53:59.703Z,45.51
2023-05-21T02:56:27.654Z,45.76
2023-05-21T02:58:55.668Z,45.64
2023-05-21T03:01:23.723Z,45.69
2023-05-21T03:03:53.102Z,45.68
2023-05-21T03:06:23.817Z,45.70
2023-05-21T03:08:51.909Z,45.67
2023-05-21T03:11:20.202Z,45.70
2023-05-21T03:13:50.798Z,45.74
2023-05-21T03:16:18.844Z,45.67
2023-05-21T03:18:47.526Z,45.52
2023-05-21T03:21:17.807Z,45.59
2023-05-21T03:23:45.755Z,45.70
2023-05-21T03:26:14.106Z,45.70
2023-05-21T03:28:42.248Z,45.78
2023-05-21T03:31:10.201Z,45.82
2023-05-21T03:33:38.369Z,45.64
2023-05-21T03:36:07.035Z,45.84
2023-05-21T03:38:37.173Z,45.89
2023-05-21T03:41:05.321Z,45.74
2023-05-21T03:43:33.266Z,45.67
2023-05-21T03:46:01.221Z,45.77
2023-05-21T03:48:29.527Z,45.84
2023-05-21T03:50:59.704Z,45.89
2023-05-21T03:53:28.265Z,45.88
2023-05-21T03:55:57.686Z,46.02
2023-05-21T03:58:26.885Z,46.42
2023-05-21T04:00:54.918Z,46.40
2023-05-21T04:03:23.131Z,46.46
2023-05-21T04:05:51.518Z,46.44
2023-05-21T04:08:19.467Z,46.39
2023-05-21T04:10:47.740Z,46.50
2023-05-21T04:13:17.045Z,46.38
2023-05-21T04:15:46.725Z,46.55
2023-05-21T04:18:15.581Z,46.32
2023-05-21T04:20:43.870Z,46.54
2023-05-21T04:23:14.894Z,46.74
2023-05-21T04:25:45.037Z,46.80
2023-05-21T04:28:13.088Z,46.76
2023-05-21T04:30:42.412Z,46.81
2023-05-21T04:33:10.567Z,46.63
2023-05-21T04:35:44.530Z,46.73
2023-05-21T04:38:12.624Z,47.06
2023-05-21T04:40:40.644Z,46.86
2023-05-21T04:43:09.053Z,46.81
2023-05-21T04:45:37.188Z,46.85
2023-05-21T04:48:07.789Z,46.81
2023-05-21T04:50:36.002Z,46.68
2023-05-21T04:53:04.458Z,46.73
2023-05-21T04:55:32.419Z,46.68
2023-05-21T04:58:00.475Z,46.70
2023-05-21T05:00:28.426Z,46.73
2023-05-21T05:02:56.483Z,46.88
2023-05-21T05:05:25.910Z,46.68
2023-05-21T05:07:53.889Z,46.82
2023-05-21T05:10:21.828Z,46.73
2023-05-21T05:12:50.093Z,46.48
2023-05-21T05:15:18.077Z,46.66
2023-05-21T05:17:48.355Z,46.63
2023-05-21T05:20:16.553Z,46.64
2023-05-21T05:22:45.926Z,46.64
2023-05-21T05:25:13.890Z,46.77
2023-05-21T05:27:41.900Z,46.64
2023-05-21T05:30:10.773Z,46.57
2023-05-21T05:32:38.790Z,46.76
2023-05-21T05:35:08.291Z,46.60
2023-05-21T05:37:36.283Z,46.74
2023-05-21T05:40:06.892Z,46.75
2023-05-21T05:42:34.885Z,46.65
2023-05-21T05:45:02.913Z,46.65
2023-05-21T05:47:31.381Z,46.68
2023-05-21T05:49:59.364Z,46.62
2023-05-21T05:52:27.389Z,46.68
2023-05-21T05:54:55.409Z,46.52
2023-05-21T05:57:24.750Z,46.76
2023-05-21T05:59:52.753Z,46.82
2023-05-21T06:02:20.829Z,46.89
2023-05-21T06:04:48.937Z,46.76
2023-05-21T06:07:17.097Z,46.76
2023-05-21T06:09:47.843Z,46.89
2023-05-21T06:12:16.705Z,46.82
2023-05-21T06:14:46.247Z,47.02
2023-05-21T06:17:14.450Z,46.96
2023-05-21T06:19:42.430Z,46.94
2023-05-21T06:22:10.417Z,47.07
2023-05-21T06:24:38.410Z,47.04
2023-05-21T06:27:06.784Z,47.21
2023-05-21T06:29:34.746Z,46.99
2023-05-21T06:32:04.717Z,47.01
2023-05-21T06:34:32.717Z,46.98
2023-05-21T06:37:02.296Z,47.05
2023-05-21T06:39:30.257Z,46.81
2023-05-21T06:41:58.243Z,46.84
2023-05-21T06:44:26.268Z,46.81
2023-05-21T06:46:54.287Z,47.00
2023-05-21T06:49:23.670Z,47.37
2023-05-21T06:51:51.653Z,47.46
2023-05-21T06:54:19.649Z,47.70
2023-05-21T06:56:47.650Z,47.75
2023-05-21T06:59:18.382Z,47.71
2023-05-21T07:01:46.379Z,47.86
2023-05-21T07:04:14.566Z,48.05
2023-05-21T07:06:43.902Z,47.95
2023-05-21T07:09:12.022Z,47.97
2023-05-21T07:11:40.002Z,48.00
2023-05-21T07:14:10.347Z,48.05
2023-05-21T07:16:39.210Z,47.92
2023-05-21T07:19:10.165Z,47.96
2023-05-21T07:21:38.199Z,48.06
2023-05-21T07:24:07.757Z,48.00
2023-05-21T07:26:35.866Z,48.00
2023-05-21T07:29:03.887Z,47.91
2023-05-21T07:31:31.961Z,48.07
2023-05-21T07:34:00.016Z,47.92
2023-05-21T07:36:28.051Z,47.98
2023-05-21T07:38:56.379Z,48.14
2023-05-21T07:41:25.817Z,48.14
2023-05-21T07:43:53.765Z,47.88
2023-05-21T07:46:21.798Z,47.80
2023-05-21T07:48:49.992Z,47.81
2023-05-21T07:51:18.364Z,47.38
2023-05-21T07:53:46.314Z,47.36
2023-05-21T07:56:14.304Z,47.35
2023-05-21T07:58:45.968Z,47.47
2023-05-21T08:01:14.062Z,47.63
2023-05-21T08:03:42.202Z,47.76
2023-05-21T08:06:10.245Z,47.78
2023-05-21T08:08:38.256Z,48.01
2023-05-21T08:11:06.491Z,47.92
2023-05-21T08:13:34.427Z,47.92
2023-05-21T08:16:05.379Z,48.04
2023-05-21T08:18:33.543Z,47.99
2023-05-21T08:21:01.631Z,48.08
2023-05-21T08:23:32.481Z,47.92
2023-05-21T08:26:00.485Z,48.05
2023-05-21T08:28:29.002Z,48.00
2023-05-21T08:30:57.124Z,48.13
2023-05-21T08:33:26.528Z,47.96
2023-05-21T08:35:54.810Z,48.04
2023-05-21T08:38:22.818Z,48.04
2023-05-21T08:40:53.219Z,47.95
2023-05-21T08:43:21.738Z,47.92
2023-05-21T08:45:55.080Z,48.17
2023-05-21T08:48:24.665Z,48.30
2023-05-21T08:50:55.312Z,48.00
2023-05-21T08:53:28.724Z,48.13
2023-05-21T08:55:58.226Z,48.13
2023-05-21T08:58:26.223Z,48.21
2023-05-21T09:00:56.080Z,48.02
2023-05-21T09:03:25.312Z,48.14
2023-05-21T09:05:55.363Z,48.30
2023-05-21T09:08:33.331Z,48.08
2023-05-21T09:11:03.119Z,48.13
2023-05-21T09:13:32.751Z,48.01
2023-05-21T09:16:01.299Z,48.20
2023-05-21T09:18:29.326Z,47.99
2023-05-21T09:20:58.822Z,47.95
2023-05-21T09:23:32.942Z,48.14
2023-05-21T09:26:02.166Z,47.98
2023-05-21T09:28:30.915Z,48.07
2023-05-21T09:31:04.879Z,48.15
2023-05-21T09:33:32.955Z,48.22
2023-05-21T09:36:02.331Z,48.16
2023-05-21T09:38:31.147Z,48.40
2023-05-21T09:41:06.470Z,48.22
2023-05-21T09:43:34.491Z,48.26
2023-05-21T09:46:02.628Z,48.50
2023-05-21T09:48:38.238Z,48.25
2023-05-21T09:51:16.116Z,48.35
2023-05-21T09:53:45.707Z,48.52
2023-05-21T09:56:16.452Z,48.35
2023-05-21T09:58:44.906Z,48.62
2023-05-21T10:01:12.852Z,48.37
2023-05-21T10:03:41.611Z,48.59
2023-05-21T10:06:10.454Z,48.53
2023-05-21T10:08:46.102Z,48.53
2023-05-21T10:11:14.918Z,48.51
2023-05-21T10:13:46.105Z,48.64
2023-05-21T10:16:14.707Z,48.47
2023-05-21T10:18:43.920Z,48.53
2023-05-21T10:21:12.117Z,48.75
2023-05-21T10:23:42.845Z,48.63
2023-05-21T10:26:12.648Z,48.78
2023-05-21T10:28:41.222Z,48.62
2023-05-21T10:31:10.505Z,48.77
2023-05-21T10:33:39.553Z,48.85
2023-05-21T10:36:07.771Z,48.84
2023-05-21T10:38:37.511Z,48.82
2023-05-21T10:41:08.025Z,48.81
2023-05-21T10:43:49.323Z,48.93
2023-05-21T10:46:32.154Z,49.01
2023-05-21T10:49:25.461Z,48.68
2023-05-21T10:52:04.721Z,48.80
2023-05-21T10:54:58.416Z,48.85
2023-05-21T10:57:44.999Z,49.37
2023-05-21T11:00:14.084Z,49.17
2023-05-21T11:02:46.030Z,49.40
2023-05-21T11:05:14.183Z,49.64
2023-05-21T11:07:53.640Z,49.27
2023-05-21T11:10:37.573Z,49.25
2023-05-21T11:13:25.734Z,49.54
2023-05-21T11:16:09.262Z,49.68
2023-05-21T11:19:02.636Z,49.77
2023-05-21T11:21:31.986Z,49.95
2023-05-21T11:24:10.967Z,49.80
2023-05-21T11:27:08.952Z,49.78
2023-05-21T11:29:47.502Z,49.69
2023-05-21T11:32:17.453Z,49.73
2023-05-21T11:34:49.189Z,49.58
2023-05-21T11:37:29.966Z,49.54
2023-05-21T11:39:59.683Z,49.60
2023-05-21T11:42:32.724Z,49.54
2023-05-21T11:45:04.192Z,49.59
2023-05-21T11:47:34.988Z,49.59
2023-05-21T11:50:04.445Z,49.41
2023-05-21T11:52:33.149Z,49.54
2023-05-21T11:55:01.805Z,49.54
2023-05-21T11:57:32.738Z,49.38
2023-05-21T12:00:12.402Z,49.22
2023-05-21T12:02:44.925Z,49.62
2023-05-21T12:05:13.347Z,49.55
2023-05-21T12:07:41.632Z,49.49
2023-05-21T12:10:10.717Z,49.43
2023-05-21T12:12:49.977Z,49.47
2023-05-21T12:15:25.874Z,49.52
2023-05-21T12:17:54.234Z,49.43
2023-05-21T12:20:23.341Z,49.62
2023-05-21T12:22:51.353Z,49.39
2023-05-21T12:25:21.138Z,49.49
2023-05-21T12:27:52.530Z,49.48
2023-05-21T12:30:21.209Z,49.60
2023-05-21T12:32:50.777Z,49.60
2023-05-21T12:35:24.255Z,49.67
2023-05-21T12:37:53.100Z,50.06
2023-05-21T12:40:23.283Z,50.29
2023-05-21T12:42:52.138Z,50.66
2023-05-21T12:45:22.757Z,50.78
2023-05-21T12:47:56.384Z,50.51
2023-05-21T12:50:27.779Z,50.39
2023-05-21T12:52:56.995Z,50.62
2023-05-21T12:55:26.687Z,50.78
2023-05-21T12:58:04.492Z,50.78
2023-05-21T13:00:33.248Z,50.94
2023-05-21T13:03:06.391Z,51.16
2023-05-21T13:05:35.151Z,51.10
2023-05-21T13:08:03.183Z,51.02
2023-05-21T13:10:31.284Z,50.90
2023-05-21T13:12:59.280Z,51.11
2023-05-21T13:15:27.399Z,51.10
2023-05-21T13:17:56.927Z,51.25
2023-05-21T13:20:27.810Z,51.25
2023-05-21T13:22:56.218Z,51.06
2023-05-21T13:25:28.506Z,51.20
2023-05-21T13:27:57.382Z,51.36
2023-05-21T13:30:25.727Z,51.20
2023-05-21T13:32:56.655Z,51.22
2023-05-21T13:35:26.418Z,51.42
2023-05-21T13:37:54.533Z,51.37
2023-05-21T13:40:25.565Z,51.37
2023-05-21T13:42:53.593Z,51.43
2023-05-21T13:45:25.430Z,51.53
2023-05-21T13:47:53.971Z,51.65
2023-05-21T13:50:21.960Z,51.53
2023-05-21T13:52:51.467Z,51.52
2023-05-21T13:55:19.647Z,51.44
2023-05-21T13:57:47.649Z,51.63
2023-05-21T14:00:21.014Z,51.72
2023-05-21T14:02:50.179Z,51.64
2023-05-21T14:05:18.574Z,51.65
2023-05-21T14:07:48.282Z,51.56
2023-05-21T14:10:17.963Z,51.71
2023-05-21T14:12:47.249Z,51.52
2023-05-21T14:15:16.160Z,51.61
2023-05-21T14:17:44.175Z,51.80
2023-05-21T14:20:13.013Z,51.65
2023-05-21T14:22:41.049Z,51.74
2023-05-21T14:25:09.613Z,51.69
2023-05-21T14:27:38.965Z,51.73
2023-05-21T14:30:08.160Z,51.95
2023-05-21T14:32:38.910Z,51.66
2023-05-21T14:35:07.515Z,51.70
2023-05-21T14:37:35.533Z,51.71
2023-05-21T14:40:05.400Z,51.80
2023-05-21T14:42:33.405Z,51.83
2023-05-21T14:45:17.669Z,51.91
2023-05-21T14:47:47.727Z,51.79
2023-05-21T14:50:17.612Z,52.00
2023-05-21T14:52:45.754Z,51.92
2023-05-21T14:55:16.544Z,52.15
2023-05-21T14:57:44.694Z,51.93
2023-05-21T15:00:15.288Z,51.85
2023-05-21T15:02:43.452Z,52.02
2023-05-21T15:05:11.533Z,51.90
2023-05-21T15:07:39.526Z,51.91
2023-05-21T15:10:09.147Z,51.75
2023-05-21T15:12:37.102Z,51.83
2023-05-21T15:15:05.954Z,51.87
2023-05-21T15:17:35.986Z,51.89
2023-05-21T15:20:04.707Z,51.72
2023-05-21T15:22:32.818Z,51.83
2023-05-21T15:25:01.225Z,51.72
2023-05-21T15:27:29.237Z,51.95
2023-05-21T15:30:00.231Z,51.94
2023-05-21T15:32:28.389Z,51.92
2023-05-21T15:35:00.987Z,51.96
2023-05-21T15:37:32.216Z,52.09
2023-05-21T15:40:00.613Z,51.91
2023-05-21T15:42:31.329Z,51.89
2023-05-21T15:44:59.378Z,51.95
2023-05-21T15:47:27.384Z,51.96
2023-05-21T15:49:55.432Z,52.07
2023-05-21T15:52:25.611Z,52.15
2023-05-21T15:54:53.661Z,52.03
2023-05-21T15:57:21.664Z,52.35
2023-05-21T15:59:50.660Z,52.25
2023-05-21T16:02:18.712Z,52.21
2023-05-21T16:04:46.944Z,52.21
2023-05-21T16:07:15.357Z,52.07
2023-05-21T16:09:44.802Z,52.27
2023-05-21T16:12:12.900Z,52.34
2023-05-21T16:14:40.980Z,52.38
2023-05-21T16:17:09.060Z,52.59
2023-05-21T16:19:40.227Z,52.93
2023-05-21T16:22:10.023Z,52.77
2023-05-21T16:24:39.041Z,52.79
2023-05-21T16:27:11.251Z,52.81
2023-05-21T16:29:40.927Z,52.70
2023-05-21T16:32:13.072Z,52.75
2023-05-21T16:34:41.144Z,52.63
2023-05-21T16:37:09.952Z,52.77
2023-05-21T16:39:38.026Z,52.71
2023-05-21T16:42:06.430Z,52.84
2023-05-21T16:44:37.071Z,53.04
2023-05-21T16:47:05.422Z,52.90
2023-05-21T16:49:36.153Z,52.84
2023-05-21T16:52:07.460Z,52.96
2023-05-21T16:54:35.446Z,52.99
2023-05-21T16:57:03.524Z,52.75
2023-05-21T16:59:31.537Z,53.11
2023-05-21T17:02:04.017Z,52.98
2023-05-21T17:04:34.080Z,52.99
2023-05-21T17:07:02.176Z,53.28
2023-05-21T17:09:30.281Z,53.16
2023-05-21T17:11:58.242Z,53.09
2023-05-21T17:14:34.305Z,53.22
2023-05-21T17:17:04.528Z,52.99
2023-05-21T17:19:35.621Z,53.00
2023-05-21T17:22:03.792Z,52.88
2023-05-21T17:24:34.626Z,53.28
2023-05-21T17:27:02.633Z,53.06
2023-05-21T17:29:33.660Z,53.39
2023-05-21T17:32:01.974Z,53.20
2023-05-21T17:34:31.359Z,53.23
2023-05-21T17:37:00.409Z,52.96
2023-05-21T17:39:28.395Z,53.09
2023-05-21T17:41:56.882Z,53.01
2023-05-21T17:44:25.661Z,53.08
2023-05-21T17:46:57.611Z,53.26
2023-05-21T17:49:25.966Z,52.90
2023-05-21T17:51:55.736Z,53.04
2023-05-21T17:54:26.291Z,53.11
2023-05-21T17:56:54.302Z,53.19
2023-05-21T17:59:22.386Z,53.08
2023-05-21T18:01:50.389Z,53.31
2023-05-21T18:04:18.582Z,53.08
2023-05-21T18:06:46.550Z,53.20
2023-05-21T18:09:15.850Z,53.13
2023-05-21T18:11:44.388Z,53.46
2023-05-21T18:14:12.338Z,53.70
2023-05-21T18:16:40.489Z,53.45
2023-05-21T18:19:08.596Z,53.77
2023-05-21T18:21:36.826Z,53.78
2023-05-21T18:24:06.237Z,53.83
2023-05-21T18:26:35.653Z,54.02
2023-05-21T18:29:03.652Z,53.91
2023-05-21T18:31:34.716Z,53.83
2023-05-21T18:34:02.703Z,53.82
2023-05-21T18:36:38.728Z,53.81
2023-05-21T18:39:07.791Z,53.90
2023-05-21T18:41:38.075Z,54.20
2023-05-21T18:44:07.009Z,53.91
2023-05-21T18:46:35.085Z,54.01
2023-05-21T18:49:06.517Z,53.98
2023-05-21T18:51:34.626Z,53.95
2023-05-21T18:54:02.673Z,53.94
2023-05-21T18:56:30.870Z,53.83
2023-05-21T18:59:00.271Z,53.82
2023-05-21T19:01:28.493Z,54.02
2023-05-21T19:03:56.637Z,54.17
2023-05-21T19:06:25.635Z,53.90
2023-05-21T19:08:53.919Z,53.93
2023-05-21T19:11:23.698Z,53.94
2023-05-21T19:13:51.734Z,54.00
2023-05-21T19:16:21.186Z,54.04
2023-05-21T19:18:49.264Z,54.22
2023-05-21T19:21:17.324Z,54.23
2023-05-21T19:23:52.776Z,54.15
2023-05-21T19:26:21.652Z,54.29
2023-05-21T19:28:53.301Z,54.24
2023-05-21T19:31:26.293Z,54.22
2023-05-21T19:33:54.404Z,54.31
2023-05-21T19:36:23.090Z,54.35
2023-05-21T19:38:51.654Z,54.38
2023-05-21T19:41:21.593Z,54.43
2023-05-21T19:43:49.609Z,54.49
2023-05-21T19:46:20.456Z,54.38
2023-05-21T19:48:52.300Z,54.38
2023-05-21T19:51:23.073Z,54.76
2023-05-21T19:53:53.666Z,54.58
2023-05-21T19:56:21.985Z,54.70
2023-05-21T19:58:52.242Z,54.53
2023-05-21T20:01:21.722Z,54.62
2023-05-21T20:03:51.886Z,54.58
2023-05-21T20:06:20.783Z,54.44
2023-05-21T20:08:48.939Z,54.54
2023-05-21T20:11:17.497Z,54.61
2023-05-21T20:13:50.017Z,54.75
2023-05-21T20:16:21.525Z,54.69
2023-05-21T20:18:56.744Z,54.89
2023-05-21T20:21:25.575Z,54.83
2023-05-21T20:23:54.327Z,54.77
2023-05-21T20:26:23.212Z,54.95
2023-05-21T20:28:51.208Z,54.84
2023-05-21T20:31:19.428Z,54.95
2023-05-21T20:33:50.441Z,54.92
2023-05-21T20:36:21.342Z,55.02
2023-05-21T20:38:49.443Z,54.88
2023-05-21T20:41:17.541Z,54.97
2023-05-21T20:43:46.332Z,55.28
2023-05-21T20:46:18.509Z,55.44
2023-05-21T20:48:47.280Z,55.13
2023-05-21T20:51:16.458Z,55.22
2023-05-21T20:53:45.924Z,55.14
2023-05-21T20:56:17.007Z,55.09
2023-05-21T20:58:48.348Z,55.17
2023-05-21T21:01:17.508Z,55.18
2023-05-21T21:03:46.668Z,55.23
2023-05-21T21:06:18.771Z,55.40
2023-05-21T21:08:50.084Z,55.31
2023-05-21T21:11:18.201Z,55.24
2023-05-21T21:13:46.163Z,55.12
2023-05-21T21:16:17.121Z,55.09
2023-05-21T21:18:46.017Z,55.08
2023-05-21T21:21:14.178Z,55.21
2023-05-21T21:23:42.335Z,55.18
2023-05-21T21:26:11.714Z,55.20
2023-05-21T21:28:40.037Z,55.12
2023-05-21T21:31:08.132Z,55.26
2023-05-21T21:33:36.155Z,55.51
2023-05-21T21:36:04.377Z,55.32
2023-05-21T21:38:32.350Z,55.20
2023-05-21T21:41:00.386Z,55.48
2023-05-21T21:43:29.723Z,55.37
2023-05-21T21:45:57.685Z,55.61
2023-05-21T21:48:25.710Z,55.53
2023-05-21T21:50:53.774Z,55.40
2023-05-21T21:53:21.782Z,55.58
2023-05-21T21:55:50.921Z,55.43
2023-05-21T21:58:21.737Z,55.72
2023-05-21T22:00:51.306Z,55.54
2023-05-21T22:03:19.276Z,55.63
2023-05-21T22:05:50.590Z,55.66
2023-05-21T22:08:18.854Z,55.42
2023-05-21T22:10:46.965Z,55.25
2023-05-21T22:13:15.043Z,55.46
2023-05-21T22:15:43.126Z,55.34
2023-05-21T22:18:12.588Z,55.53
2023-05-21T22:20:40.796Z,55.62
2023-05-21T22:23:11.851Z,55.51
2023-05-21T22:25:39.933Z,55.35
2023-05-21T22:28:07.961Z,55.29
2023-05-21T22:30:37.931Z,55.48
2023-05-21T22:33:06.284Z,55.49
2023-05-21T22:35:35.750Z,55.26
2023-05-21T22:38:03.826Z,55.17
2023-05-21T22:40:31.862Z,55.31
2023-05-21T22:43:00.200Z,55.17
2023-05-21T22:45:28.532Z,55.10
2023-05-21T22:48:01.639Z,55.21
2023-05-21T22:50:32.951Z,55.18
2023-05-21T22:53:02.375Z,55.23
2023-05-21T22:55:30.403Z,55.47
2023-05-21T22:57:58.411Z,55.11
2023-05-21T23:00:29.194Z,55.22
2023-05-21T23:02:57.331Z,55.08
2023-05-21T23:05:25.667Z,55.37
2023-05-21T23:07:56.601Z,55.33
2023-05-21T23:10:26.220Z,55.35
2023-05-21T23:12:54.155Z,55.48
2023-05-21T23:15:22.732Z,55.52
2023-05-21T23:17:50.682Z,55.42
2023-05-21T23:20:18.807Z,55.39
2023-05-21T23:22:46.821Z,55.45
2023-05-21T23:25:14.765Z,55.62
2023-05-21T23:27:44.050Z,55.38
2023-05-21T23:30:12.625Z,55.59
2023-05-21T23:32:41.032Z,55.79
2023-05-21T23:35:10.595Z,55.63
2023-05-21T23:37:38.627Z,55.58
2023-05-21T23:40:08.033Z,55.75
2023-05-21T23:42:36.198Z,55.60
2023-05-21T23:45:06.328Z,55.50
2023-05-21T23:47:34.412Z,55.52
2023-05-21T23:50:02.739Z,55.54
2023-05-21T23:52:30.834Z,55.68
2023-05-21T23:54:59.140Z,55.69
2023-05-21T23:57:27.184Z,55.53
2023-05-21T23:59:55.116Z,55.63
